ADDS METAR Data INFO
IDs: Format: Raw Decoded Include TAF

Data at: 1324 UTC 11 Dec 2017

KPLN 111254Z AUTO 14003KT 10SM OVC024 M08/M12 A2995 RMK AO2 SLP156 T10831122
KPLN 111154Z AUTO 10004KT 10SM OVC026 M09/M12 A2995 RMK AO2 SLP157 T10891122 11083 21100 56014
KPLN 111054Z AUTO 19003KT 10SM OVC027 M09/M12 A2996 RMK AO2 SLP161 T10891122
KPLN 111012Z AUTO 00000KT 10SM OVC029 M09/M12 A2996 RMK AO2 T10891122
KPLN 110954Z AUTO 08005KT 10SM OVC031 M09/M12 A2997 RMK AO2 SLP161 T10891122
KPLN 110854Z AUTO 00000KT 10SM OVC031 M09/M12 A2999 RMK AO2 SLP170 T10941122 50000
KPLN 110754Z AUTO 00000KT 10SM OVC032 M10/M12 A3001 RMK AO2 SLP175 T11001122
KPLN 110654Z AUTO 00000KT 10SM OVC032 M09/M13 A3000 RMK AO2 SLP172 T10891128
KPLN 110554Z AUTO 00000KT 10SM OVC032 M08/M13 A2999 RMK AO2 SLP169 T10831133 11083 21089 58003
KPLN 110540Z AUTO 00000KT 10SM OVC030 M08/M13 A2999 RMK AO2 T10831133
KPLN 110524Z AUTO 00000KT 10SM OVC029 M08/M13 A2999 RMK AO2 T10831128
KPLN 110454Z AUTO 31005KT 10SM OVC030 M08/M13 A3000 RMK AO2 SLP171 T10831133 410281089
KPLN 110451Z AUTO 31005KT 10SM OVC030 M08/M13 A3000 RMK AO2
KPLN 110425Z AUTO 32008KT 10SM OVC029 M08/M13 A3001 RMK AO2 T10831133
KPLN 110354Z AUTO 33008KT 10SM OVC032 M08/M13 A3000 RMK AO2 SLP172 T10831133
KPLN 110254Z AUTO 33007KT 10SM OVC032 M08/M14 A2999 RMK AO2 SLP170 T10831139 50008
KPLN 110154Z AUTO 34009KT 10SM OVC031 M08/M14 A3000 RMK AO2 SLP170 T10831139
KPLN 110143Z AUTO 34009G17KT 10SM OVC031 M08/M14 A3000 RMK AO2 T10831139
KPLN 110112Z AUTO 34008KT 10SM OVC029 M09/M14 A2999 RMK AO2 T10891139
KPLN 110032Z AUTO 34010KT 10SM OVC031 M09/M14 A2999 RMK AO2 T10891139
KPLN 102354Z AUTO 34011KT 10SM OVC027 M08/M13 A2997 RMK AO2 SLP162 60000 T10831133 11033 21083 52028
KPLN 102254Z AUTO 33015KT 10SM OVC027 M08/M12 A2993 RMK AO2 SLP148 T10781122
KPLN 102154Z AUTO 33015KT 9SM OVC024 M07/M11 A2988 RMK AO2 SLP132 T10671106
KPLN 102102Z AUTO 34016G20KT 8SM BKN026 OVC031 M06/M09 A2986 RMK AO2 T10561094
KPLN 102054Z AUTO 34017KT 9SM SCT024 OVC031 M06/M09 A2986 RMK AO2 SLP122 60000 T10561094 53029
KPLN 101954Z AUTO 35013KT 10SM OVC027 M05/M09 A2982 RMK AO2 SLP111 T10501094
KPLN 101854Z AUTO 35012KT 10SM OVC023 M04/M08 A2979 RMK AO2 SNB02E14 SLP101 P0000 T10441083
KPLN 101754Z AUTO 31012KT 10SM FEW024 BKN028 OVC044 M03/M07 A2977 RMK AO2 SNE20 SLP092 P0000 60000 T10331072 11028 21050 55001
KPLN 101716Z AUTO 30013KT 3SM -SN SCT018 BKN035 OVC047 M03/M07 A2976 RMK AO2 P0000 T10331067
KPLN 101711Z AUTO 30011G18KT 1 3/4SM -SN BKN018 BKN028 OVC049 M03/M06 A2976 RMK AO2 P0000 T10331061
KPLN 101654Z AUTO 28011KT 7SM -SN FEW014 BKN029 OVC048 M03/M06 A2976 RMK AO2 SLP089 P0000 T10281061
KPLN 101651Z AUTO 30010KT 5SM -SN FEW012 BKN017 OVC048 M03/M06 A2976 RMK AO2 P0000
KPLN 101640Z AUTO 29009KT 2SM -SN BR SCT014 BKN019 OVC039 M03/M05 A2976 RMK AO2 P0000 T10331050
KPLN 101635Z AUTO 28010KT 1SM -SN BR BKN014 BKN019 OVC029 M03/M05 A2976 RMK AO2 P0000 T10331050
KPLN 101632Z AUTO 29010KT 3/4SM -SN BR BKN014 BKN019 OVC026 M03/M06 A2976 RMK AO2 P0000 T10331056
KPLN 101606Z AUTO 27009KT 1 1/2SM -SN BKN021 OVC028 M03/M06 A2977 RMK AO2 P0000 T10331061
KPLN 101554Z AUTO 26006KT 2 1/2SM -SN FEW019 OVC026 M03/M06 A2977 RMK AO2 SNB1456 SLP092 P0000 T10331061
KPLN 101549Z AUTO 27007KT 2SM -SN FEW019 OVC026 M03/M06 A2977 RMK AO2 SNB1456 P0000
KPLN 101536Z AUTO 27007KT 1 3/4SM -SN OVC028 M04/M07 A2977 RMK AO2 SNB1456 P0000 T10391067
KPLN 101517Z AUTO 27006KT 2SM -SN BKN028 OVC038 M04/M07 A2977 RMK AO2 SNB1456 P0000 T10391072
KPLN 101454Z AUTO 26006KT 8SM BKN048 OVC060 M04/M08 A2976 RMK AO2 SLP091 T10391078 55000
KPLN 101354Z AUTO 26006KT 10SM OVC070 M04/M08 A2976 RMK AO2 SLP090 T10441078
KPLN 101336Z AUTO 27008KT 10SM FEW022 OVC070 M04/M08 A2977 RMK AO2 T10441078
KPLN 101254Z AUTO 28008KT 10SM SCT023 BKN028 OVC085 M04/M09 A2976 RMK AO2 SLP091 T10441089
KPLN 101242Z AUTO 28010KT 10SM BKN026 OVC090 M04/M09 A2976 RMK AO2 T10441094
KPLN 101154Z AUTO 26008KT 10SM FEW032 OVC100 M05/M11 A2976 RMK AO2 SNE1055 SLP091 P0000 60000 70001 T10501106 11044 21067 58005
KPLN 101054Z AUTO 27006KT 9SM -SN SCT026 OVC035 M05/M08 A2977 RMK AO2 SLP094 P0000 T10501083
KPLN 100954Z AUTO 28007KT 4SM -SN BKN024 BKN030 OVC035 M05/M08 A2978 RMK AO2 SNB09 SLP096 P0000 T10501083
KPLN 100949Z AUTO 27008KT 5SM -SN BKN024 OVC032 M05/M08 A2978 RMK AO2 SNB09 P0000
KPLN 100854Z AUTO 00000KT 9SM BKN034 BKN055 OVC075 M06/M08 A2979 RMK AO2 SNE33 SLP100 P0000 60000 T10611083 56018
KPLN 100829Z AUTO 00000KT 8SM -SN SCT024 OVC034 M06/M09 A2980 RMK AO2 P0000 T10611089
KPLN 100810Z AUTO 00000KT 5SM -SN BKN022 OVC030 M06/M09 A2981 RMK AO2 P0000 T10611089
KPLN 100802Z AUTO 00000KT 7SM -SN SCT026 OVC034 M06/M09 A2981 RMK AO2 P0000 T10611094
KPLN 100754Z AUTO 26003KT 5SM -SN BKN028 OVC034 M06/M09 A2981 RMK AO2 SNB23 SLP106 P0000 T10611094
KPLN 100745Z AUTO 00000KT 7SM -SN SCT025 BKN030 OVC034 M06/M09 A2981 RMK AO2 SNB23 P0000 T10611094
KPLN 100712Z AUTO 26003KT 10SM BKN029 OVC035 M06/M10 A2982 RMK AO2 T10611100
KPLN 100654Z AUTO 27004KT 10SM OVC031 M06/M10 A2983 RMK AO2 SLP112 T10611100
KPLN 100554Z AUTO 25003KT 10SM OVC031 M07/M11 A2985 RMK AO2 SLP119 T10671106 11067 21078 58016
KPLN 100541Z AUTO 24004KT 10SM OVC031 M07/M11 A2986 RMK AO2 T10671106
KPLN 100523Z AUTO 00000KT 10SM OVC029 M07/M11 A2986 RMK AO2 T10721111
KPLN 100454Z AUTO 00000KT 10SM OVC033 M08/M11 A2987 RMK AO2 SLP128 T10781106 410391100
KPLN 100354Z AUTO 00000KT 10SM OVC030 M07/M11 A2989 RMK AO2 SLP134 T10721111
KPLN 100254Z AUTO 29006KT 10SM OVC030 M07/M12 A2990 RMK AO2 SLP137 T10671117 58003
KPLN 100244Z AUTO 30004KT 10SM OVC030 M07/M12 A2990 RMK AO2 T10721117
KPLN 100218Z AUTO 32006KT 10SM OVC029 M07/M12 A2990 RMK AO2 T10721117
KPLN 100154Z AUTO 33009KT 10SM OVC030 M07/M12 A2990 RMK AO2 SLP139 T10671122